sensor_id;sensor_type;location;lat;lon;timestamp;temperature;humidity
10597;DHT22;5346;48.766;8.674;2022-12-07T00:02:07;0.50;1.00
10597;DHT22;5346;48.766;8.674;2022-12-07T00:04:41;0.50;1.00
10597;DHT22;5346;48.766;8.674;2022-12-07T00:07:08;0.50;1.00
10597;DHT22;5346;48.766;8.674;2022-12-07T00:09:35;0.50;1.00
10597;DHT22;5346;48.766;8.674;2022-12-07T00:12:09;0.50;1.00
10597;DHT22;5346;48.766;8.674;2022-12-07T00:14:36;0.50;1.00
10597;DHT22;5346;48.766;8.674;2022-12-07T00:17:03;0.50;1.00
10597;DHT22;5346;48.766;8.674;2022-12-07T00:19:37;0.50;1.00
10597;DHT22;5346;48.766;8.674;2022-12-07T00:22:04;0.50;1.00
10597;DHT22;5346;48.766;8.674;2022-12-07T00:24:31;0.40;1.00
10597;DHT22;5346;48.766;8.674;2022-12-07T00:27:05;0.40;1.00
10597;DHT22;5346;48.766;8.674;2022-12-07T00:29:32;0.30;1.00
10597;DHT22;5346;48.766;8.674;2022-12-07T00:31:59;0.30;1.00
10597;DHT22;5346;48.766;8.674;2022-12-07T00:34:33;0.40;1.00
10597;DHT22;5346;48.766;8.674;2022-12-07T00:37:00;0.40;1.00
10597;DHT22;5346;48.766;8.674;2022-12-07T00:39:27;0.40;1.00
10597;DHT22;5346;48.766;8.674;2022-12-07T00:42:01;0.40;1.00
10597;DHT22;5346;48.766;8.674;2022-12-07T00:44:40;0.40;1.00
10597;DHT22;5346;48.766;8.674;2022-12-07T00:47:14;0.40;1.00
10597;DHT22;5346;48.766;8.674;2022-12-07T00:49:41;0.40;1.00
10597;DHT22;5346;48.766;8.674;2022-12-07T00:52:08;0.40;1.00
10597;DHT22;5346;48.766;8.674;2022-12-07T00:54:42;0.40;1.00
10597;DHT22;5346;48.766;8.674;2022-12-07T00:57:09;0.30;1.00
10597;DHT22;5346;48.766;8.674;2022-12-07T00:59:36;0.30;1.00
10597;DHT22;5346;48.766;8.674;2022-12-07T01:02:10;0.30;1.00
10597;DHT22;5346;48.766;8.674;2022-12-07T01:04:37;0.30;1.00
10597;DHT22;5346;48.766;8.674;2022-12-07T01:07:04;0.30;1.00
10597;DHT22;5346;48.766;8.674;2022-12-07T01:09:38;0.30;1.00
10597;DHT22;5346;48.766;8.674;2022-12-07T01:12:05;0.30;1.00
10597;DHT22;5346;48.766;8.674;2022-12-07T01:14:32;0.30;1.00
10597;DHT22;5346;48.766;8.674;2022-12-07T01:17:06;0.30;1.00
10597;DHT22;5346;48.766;8.674;2022-12-07T01:19:33;0.30;1.00
10597;DHT22;5346;48.766;8.674;2022-12-07T01:22:00;0.30;1.00
10597;DHT22;5346;48.766;8.674;2022-12-07T01:24:34;0.20;1.00
10597;DHT22;5346;48.766;8.674;2022-12-07T01:27:01;0.20;1.00
10597;DHT22;5346;48.766;8.674;2022-12-07T01:29:27;0.20;99.90
10597;DHT22;5346;48.766;8.674;2022-12-07T01:32:01;0.20;99.90
10597;DHT22;5346;48.766;8.674;2022-12-07T01:34:28;0.20;99.90
10597;DHT22;5346;48.766;8.674;2022-12-07T01:36:55;0.20;99.90
10597;DHT22;5346;48.766;8.674;2022-12-07T01:39:29;0.10;99.90
10597;DHT22;5346;48.766;8.674;2022-12-07T01:41:56;0.10;99.90
10597;DHT22;5346;48.766;8.674;2022-12-07T01:47:55;0.20;99.90
10597;DHT22;5346;48.766;8.674;2022-12-07T01:50:30;0.20;99.90
10597;DHT22;5346;48.766;8.674;2022-12-07T01:53:02;0.20;99.90
10597;DHT22;5346;48.766;8.674;2022-12-07T01:55:42;0.20;99.90
10597;DHT22;5346;48.766;8.674;2022-12-07T01:58:13;0.10;99.90
10597;DHT22;5346;48.766;8.674;2022-12-07T02:00:48;0.10;99.90
10597;DHT22;5346;48.766;8.674;2022-12-07T02:03:34;0.10;99.90
10597;DHT22;5346;48.766;8.674;2022-12-07T02:06:15;0.10;99.90
10597;DHT22;5346;48.766;8.674;2022-12-07T02:08:46;0.10;99.90
10597;DHT22;5346;48.766;8.674;2022-12-07T02:11:20;0.10;99.90
10597;DHT22;5346;48.766;8.674;2022-12-07T02:13:48;0.10;99.90
10597;DHT22;5346;48.766;8.674;2022-12-07T02:28:46;0.00;99.90
10597;DHT22;5346;48.766;8.674;2022-12-07T02:31:30;0.00;99.90
10597;DHT22;5346;48.766;8.674;2022-12-07T02:44:10;0.00;99.90
10597;DHT22;5346;48.766;8.674;2022-12-07T02:46:23;-0.10;99.90
10597;DHT22;5346;48.766;8.674;2022-12-07T02:49:03;-0.10;99.90
10597;DHT22;5346;48.766;8.674;2022-12-07T02:51:32;-0.10;99.90
10597;DHT22;5346;48.766;8.674;2022-12-07T02:54:00;-0.20;99.90
10597;DHT22;5346;48.766;8.674;2022-12-07T03:05:39;-0.20;99.90
10597;DHT22;5346;48.766;8.674;2022-12-07T03:08:33;-0.30;99.90
10597;DHT22;5346;48.766;8.674;2022-12-07T03:11:35;-0.30;99.90
10597;DHT22;5346;48.766;8.674;2022-12-07T03:14:38;-0.30;99.90
10597;DHT22;5346;48.766;8.674;2022-12-07T03:17:26;-0.30;99.90
10597;DHT22;5346;48.766;8.674;2022-12-07T03:20:05;-0.30;99.90
10597;DHT22;5346;48.766;8.674;2022-12-07T03:22:37;-0.30;99.90
10597;DHT22;5346;48.766;8.674;2022-12-07T03:25:15;-0.30;99.90
10597;DHT22;5346;48.766;8.674;2022-12-07T03:27:53;-0.30;99.90
10597;DHT22;5346;48.766;8.674;2022-12-07T03:33:24;-0.40;99.90
10597;DHT22;5346;48.766;8.674;2022-12-07T03:38:44;-0.40;99.90
10597;DHT22;5346;48.766;8.674;2022-12-07T03:41:27;-0.40;99.90
10597;DHT22;5346;48.766;8.674;2022-12-07T03:44:18;-0.40;99.90
10597;DHT22;5346;48.766;8.674;2022-12-07T03:47:01;-0.50;1.00
10597;DHT22;5346;48.766;8.674;2022-12-07T03:49:45;-0.50;1.00
10597;DHT22;5346;48.766;8.674;2022-12-07T03:52:45;-0.50;1.00
10597;DHT22;5346;48.766;8.674;2022-12-07T03:55:29;-0.50;1.00
10597;DHT22;5346;48.766;8.674;2022-12-07T03:58:10;-0.50;1.00
10597;DHT22;5346;48.766;8.674;2022-12-07T04:00:40;-0.60;1.00
10597;DHT22;5346;48.766;8.674;2022-12-07T04:03:16;-0.50;1.00
10597;DHT22;5346;48.766;8.674;2022-12-07T04:05:43;-0.50;1.00
10597;DHT22;5346;48.766;8.674;2022-12-07T04:08:11;-0.50;1.00
10597;DHT22;5346;48.766;8.674;2022-12-07T04:10:45;-0.60;1.00
10597;DHT22;5346;48.766;8.674;2022-12-07T04:13:13;-0.60;1.00
10597;DHT22;5346;48.766;8.674;2022-12-07T04:15:40;-0.60;1.00
10597;DHT22;5346;48.766;8.674;2022-12-07T04:18:14;-0.60;1.00
10597;DHT22;5346;48.766;8.674;2022-12-07T04:20:41;-0.60;1.00
10597;DHT22;5346;48.766;8.674;2022-12-07T04:23:08;-0.60;1.00
10597;DHT22;5346;48.766;8.674;2022-12-07T04:25:42;-0.60;1.00
10597;DHT22;5346;48.766;8.674;2022-12-07T04:28:09;-0.60;1.00
10597;DHT22;5346;48.766;8.674;2022-12-07T04:30:36;-0.50;99.90
10597;DHT22;5346;48.766;8.674;2022-12-07T04:33:10;-0.60;99.90
10597;DHT22;5346;48.766;8.674;2022-12-07T04:35:37;-0.60;99.90
10597;DHT22;5346;48.766;8.674;2022-12-07T04:38:04;-0.70;99.90
10597;DHT22;5346;48.766;8.674;2022-12-07T04:40:38;-0.80;99.90
10597;DHT22;5346;48.766;8.674;2022-12-07T04:43:05;-0.90;99.90
10597;DHT22;5346;48.766;8.674;2022-12-07T04:45:47;-1.10;99.90
10597;DHT22;5346;48.766;8.674;2022-12-07T04:48:15;-1.20;99.90
10597;DHT22;5346;48.766;8.674;2022-12-07T04:50:42;-1.20;99.90
10597;DHT22;5346;48.766;8.674;2022-12-07T04:53:16;-1.20;99.90
10597;DHT22;5346;48.766;8.674;2022-12-07T04:55:44;-1.20;99.90
10597;DHT22;5346;48.766;8.674;2022-12-07T04:58:12;-1.20;99.90
10597;DHT22;5346;48.766;8.674;2022-12-07T05:00:47;-1.30;99.90
10597;DHT22;5346;48.766;8.674;2022-12-07T05:03:14;-1.30;99.90
10597;DHT22;5346;48.766;8.674;2022-12-07T05:05:43;-1.30;99.90
10597;DHT22;5346;48.766;8.674;2022-12-07T05:08:17;-1.30;99.90
10597;DHT22;5346;48.766;8.674;2022-12-07T05:10:44;-1.30;99.90
10597;DHT22;5346;48.766;8.674;2022-12-07T05:13:11;-1.30;99.90
10597;DHT22;5346;48.766;8.674;2022-12-07T05:15:47;-1.40;99.90
10597;DHT22;5346;48.766;8.674;2022-12-07T05:18:15;-1.40;99.90
10597;DHT22;5346;48.766;8.674;2022-12-07T05:20:42;-1.40;99.90
10597;DHT22;5346;48.766;8.674;2022-12-07T05:23:16;-1.40;99.90
10597;DHT22;5346;48.766;8.674;2022-12-07T05:25:44;-1.50;99.90
10597;DHT22;5346;48.766;8.674;2022-12-07T05:28:12;-1.40;99.90
10597;DHT22;5346;48.766;8.674;2022-12-07T05:30:46;-1.40;1.00
10597;DHT22;5346;48.766;8.674;2022-12-07T05:33:13;-1.40;1.00
10597;DHT22;5346;48.766;8.674;2022-12-07T05:35:40;-1.40;1.00
10597;DHT22;5346;48.766;8.674;2022-12-07T05:38:14;-1.30;1.00
10597;DHT22;5346;48.766;8.674;2022-12-07T05:40:41;-1.30;1.00
10597;DHT22;5346;48.766;8.674;2022-12-07T05:43:08;-1.30;1.00
10597;DHT22;5346;48.766;8.674;2022-12-07T05:45:42;-1.30;1.00
10597;DHT22;5346;48.766;8.674;2022-12-07T05:48:09;-1.30;1.00
10597;DHT22;5346;48.766;8.674;2022-12-07T05:50:36;-1.20;1.00
10597;DHT22;5346;48.766;8.674;2022-12-07T05:53:10;-1.20;1.00
10597;DHT22;5346;48.766;8.674;2022-12-07T05:55:37;-1.20;1.00
10597;DHT22;5346;48.766;8.674;2022-12-07T05:58:04;-1.20;1.00
10597;DHT22;5346;48.766;8.674;2022-12-07T06:00:56;-1.10;1.00
10597;DHT22;5346;48.766;8.674;2022-12-07T06:03:23;-1.10;1.00
10597;DHT22;5346;48.766;8.674;2022-12-07T06:05:51;-1.10;1.00
10597;DHT22;5346;48.766;8.674;2022-12-07T06:08:25;-1.10;1.00
10597;DHT22;5346;48.766;8.674;2022-12-07T06:10:52;-1.10;99.90
10597;DHT22;5346;48.766;8.674;2022-12-07T06:13:47;-1.10;99.90
10597;DHT22;5346;48.766;8.674;2022-12-07T06:16:14;-1.10;99.90
10597;DHT22;5346;48.766;8.674;2022-12-07T06:18:41;-1.10;99.90
10597;DHT22;5346;48.766;8.674;2022-12-07T06:21:15;-1.10;99.90
10597;DHT22;5346;48.766;8.674;2022-12-07T06:23:42;-1.10;99.90
10597;DHT22;5346;48.766;8.674;2022-12-07T06:26:10;-1.10;99.90
10597;DHT22;5346;48.766;8.674;2022-12-07T06:28:44;-1.10;99.90
10597;DHT22;5346;48.766;8.674;2022-12-07T06:31:11;-1.10;99.90
10597;DHT22;5346;48.766;8.674;2022-12-07T06:33:40;-1.10;99.90
10597;DHT22;5346;48.766;8.674;2022-12-07T06:36:15;-1.10;99.90
10597;DHT22;5346;48.766;8.674;2022-12-07T06:38:42;-1.00;99.90
10597;DHT22;5346;48.766;8.674;2022-12-07T06:41:09;-1.10;1.00
10597;DHT22;5346;48.766;8.674;2022-12-07T06:43:50;-1.00;1.00
10597;DHT22;5346;48.766;8.674;2022-12-07T06:46:22;-1.00;1.00
10597;DHT22;5346;48.766;8.674;2022-12-07T06:48:57;-1.00;1.00
10597;DHT22;5346;48.766;8.674;2022-12-07T06:51:24;-1.00;1.00
10597;DHT22;5346;48.766;8.674;2022-12-07T06:53:51;-1.00;99.90
10597;DHT22;5346;48.766;8.674;2022-12-07T06:56:25;-1.00;99.90
10597;DHT22;5346;48.766;8.674;2022-12-07T06:58:52;-1.00;99.90
10597;DHT22;5346;48.766;8.674;2022-12-07T07:01:19;-1.00;99.90
10597;DHT22;5346;48.766;8.674;2022-12-07T07:03:53;-1.00;99.90
10597;DHT22;5346;48.766;8.674;2022-12-07T07:06:20;-1.00;99.90
10597;DHT22;5346;48.766;8.674;2022-12-07T07:08:47;-1.00;99.90
10597;DHT22;5346;48.766;8.674;2022-12-07T07:11:21;-1.00;99.90
10597;DHT22;5346;48.766;8.674;2022-12-07T07:13:48;-1.00;1.00
10597;DHT22;5346;48.766;8.674;2022-12-07T07:16:15;-1.00;1.00
10597;DHT22;5346;48.766;8.674;2022-12-07T07:18:49;-1.00;17.60
10597;DHT22;5346;48.766;8.674;2022-12-07T07:21:17;-1.00;19.60
10597;DHT22;5346;48.766;8.674;2022-12-07T07:23:44;-0.90;4.70
10597;DHT22;5346;48.766;8.674;2022-12-07T07:26:18;-0.90;1.00
10597;DHT22;5346;48.766;8.674;2022-12-07T07:28:49;-0.90;1.00
10597;DHT22;5346;48.766;8.674;2022-12-07T07:31:16;-0.90;1.00
10597;DHT22;5346;48.766;8.674;2022-12-07T07:33:50;-0.90;1.00
10597;DHT22;5346;48.766;8.674;2022-12-07T07:36:17;-0.90;1.00
10597;DHT22;5346;48.766;8.674;2022-12-07T07:38:44;-0.90;1.00
10597;DHT22;5346;48.766;8.674;2022-12-07T07:41:18;-0.80;1.00
10597;DHT22;5346;48.766;8.674;2022-12-07T07:43:45;-0.80;1.00
10597;DHT22;5346;48.766;8.674;2022-12-07T07:46:25;-0.80;1.00
10597;DHT22;5346;48.766;8.674;2022-12-07T07:48:52;-0.80;1.00
10597;DHT22;5346;48.766;8.674;2022-12-07T07:51:19;-0.70;1.00
10597;DHT22;5346;48.766;8.674;2022-12-07T07:53:53;-0.70;1.00
10597;DHT22;5346;48.766;8.674;2022-12-07T07:56:20;-0.70;1.00
10597;DHT22;5346;48.766;8.674;2022-12-07T07:58:51;-0.70;1.00
10597;DHT22;5346;48.766;8.674;2022-12-07T08:01:25;-0.70;1.00
10597;DHT22;5346;48.766;8.674;2022-12-07T08:03:52;-0.60;1.00
10597;DHT22;5346;48.766;8.674;2022-12-07T08:06:19;-0.60;1.00
10597;DHT22;5346;48.766;8.674;2022-12-07T08:08:58;-0.60;1.00
10597;DHT22;5346;48.766;8.674;2022-12-07T08:11:25;-0.60;1.00
10597;DHT22;5346;48.766;8.674;2022-12-07T08:13:52;-0.50;1.00
10597;DHT22;5346;48.766;8.674;2022-12-07T08:16:26;-0.50;1.00
10597;DHT22;5346;48.766;8.674;2022-12-07T08:18:53;-0.40;1.00
10597;DHT22;5346;48.766;8.674;2022-12-07T08:21:20;-0.40;1.00
10597;DHT22;5346;48.766;8.674;2022-12-07T08:23:54;-0.30;1.00
10597;DHT22;5346;48.766;8.674;2022-12-07T08:26:21;-0.30;1.00
10597;DHT22;5346;48.766;8.674;2022-12-07T08:28:48;-0.30;1.00
10597;DHT22;5346;48.766;8.674;2022-12-07T08:31:22;-0.40;1.00
10597;DHT22;5346;48.766;8.674;2022-12-07T08:33:49;-0.30;1.00
10597;DHT22;5346;48.766;8.674;2022-12-07T08:36:16;-0.30;1.00
10597;DHT22;5346;48.766;8.674;2022-12-07T08:38:51;-0.20;1.00
10597;DHT22;5346;48.766;8.674;2022-12-07T08:41:38;-0.20;1.00
10597;DHT22;5346;48.766;8.674;2022-12-07T08:44:18;-0.20;1.00
10597;DHT22;5346;48.766;8.674;2022-12-07T08:46:58;-0.10;1.00
10597;DHT22;5346;48.766;8.674;2022-12-07T08:49:43;-0.10;1.00
10597;DHT22;5346;48.766;8.674;2022-12-07T08:52:14;0.00;1.00
10597;DHT22;5346;48.766;8.674;2022-12-07T08:54:49;0.10;1.00
10597;DHT22;5346;48.766;8.674;2022-12-07T08:57:16;0.10;1.00
10597;DHT22;5346;48.766;8.674;2022-12-07T08:59:43;0.20;1.00
10597;DHT22;5346;48.766;8.674;2022-12-07T09:02:17;0.20;1.00
10597;DHT22;5346;48.766;8.674;2022-12-07T09:04:44;0.20;1.00
10597;DHT22;5346;48.766;8.674;2022-12-07T09:07:12;0.20;1.00
10597;DHT22;5346;48.766;8.674;2022-12-07T09:09:46;0.20;1.00
10597;DHT22;5346;48.766;8.674;2022-12-07T09:12:13;0.20;1.00
10597;DHT22;5346;48.766;8.674;2022-12-07T09:14:40;0.20;1.00
10597;DHT22;5346;48.766;8.674;2022-12-07T09:17:14;0.10;1.00
10597;DHT22;5346;48.766;8.674;2022-12-07T09:19:41;0.20;1.00
10597;DHT22;5346;48.766;8.674;2022-12-07T09:22:09;0.20;1.00
10597;DHT22;5346;48.766;8.674;2022-12-07T09:24:49;0.20;1.00
10597;DHT22;5346;48.766;8.674;2022-12-07T09:27:16;0.30;1.00
10597;DHT22;5346;48.766;8.674;2022-12-07T09:29:52;0.50;1.00
10597;DHT22;5346;48.766;8.674;2022-12-07T09:32:19;0.50;1.00
10597;DHT22;5346;48.766;8.674;2022-12-07T09:34:47;0.50;1.00
10597;DHT22;5346;48.766;8.674;2022-12-07T09:37:22;0.60;1.00
10597;DHT22;5346;48.766;8.674;2022-12-07T09:39:50;0.70;1.00
10597;DHT22;5346;48.766;8.674;2022-12-07T09:42:29;0.80;1.00
10597;DHT22;5346;48.766;8.674;2022-12-07T09:45:13;0.80;1.00
10597;DHT22;5346;48.766;8.674;2022-12-07T09:47:50;0.90;1.00
10597;DHT22;5346;48.766;8.674;2022-12-07T09:50:26;1.00;99.90
10597;DHT22;5346;48.766;8.674;2022-12-07T09:53:06;1.00;1.00
10597;DHT22;5346;48.766;8.674;2022-12-07T09:55:43;1.00;99.90
10597;DHT22;5346;48.766;8.674;2022-12-07T09:58:23;1.20;99.90
10597;DHT22;5346;48.766;8.674;2022-12-07T10:01:11;1.20;99.90
10597;DHT22;5346;48.766;8.674;2022-12-07T10:03:54;1.30;99.90
10597;DHT22;5346;48.766;8.674;2022-12-07T10:06:32;1.20;99.90
10597;DHT22;5346;48.766;8.674;2022-12-07T10:08:59;1.10;99.90
10597;DHT22;5346;48.766;8.674;2022-12-07T10:11:27;1.10;99.90
10597;DHT22;5346;48.766;8.674;2022-12-07T10:14:12;1.20;99.90
10597;DHT22;5346;48.766;8.674;2022-12-07T10:16:41;1.10;99.90
10597;DHT22;5346;48.766;8.674;2022-12-07T10:19:32;1.00;99.90
10597;DHT22;5346;48.766;8.674;2022-12-07T10:22:15;1.00;1.00
10597;DHT22;5346;48.766;8.674;2022-12-07T10:25:08;0.90;1.00
10597;DHT22;5346;48.766;8.674;2022-12-07T10:31:02;0.90;1.00
10597;DHT22;5346;48.766;8.674;2022-12-07T10:33:57;1.00;1.00
10597;DHT22;5346;48.766;8.674;2022-12-07T10:42:18;2.30;1.00
10597;DHT22;5346;48.766;8.674;2022-12-07T10:53:47;4.30;1.00
10597;DHT22;5346;48.766;8.674;2022-12-07T11:01:41;3.00;1.00
10597;DHT22;5346;48.766;8.674;2022-12-07T11:04:47;2.40;99.90
10597;DHT22;5346;48.766;8.674;2022-12-07T11:07:36;2.00;99.90
10597;DHT22;5346;48.766;8.674;2022-12-07T11:10:28;1.90;1.00
10597;DHT22;5346;48.766;8.674;2022-12-07T11:13:29;1.70;1.00
10597;DHT22;5346;48.766;8.674;2022-12-07T11:16:56;1.40;99.90
10597;DHT22;5346;48.766;8.674;2022-12-07T11:22:49;1.70;1.00
10597;DHT22;5346;48.766;8.674;2022-12-07T11:25:47;2.20;99.90
10597;DHT22;5346;48.766;8.674;2022-12-07T11:29:00;2.20;1.00
10597;DHT22;5346;48.766;8.674;2022-12-07T11:35:08;1.90;99.90
10597;DHT22;5346;48.766;8.674;2022-12-07T11:37:44;1.70;1.00
10597;DHT22;5346;48.766;8.674;2022-12-07T11:40:21;1.60;1.00
10597;DHT22;5346;48.766;8.674;2022-12-07T11:43:31;1.50;1.00
10597;DHT22;5346;48.766;8.674;2022-12-07T11:46:14;1.40;1.00
10597;DHT22;5346;48.766;8.674;2022-12-07T11:52:41;1.30;1.00
10597;DHT22;5346;48.766;8.674;2022-12-07T11:55:24;1.20;99.90
10597;DHT22;5346;48.766;8.674;2022-12-07T11:58:19;1.30;99.90
10597;DHT22;5346;48.766;8.674;2022-12-07T12:04:32;1.40;99.90
10597;DHT22;5346;48.766;8.674;2022-12-07T12:07:23;1.30;99.90
10597;DHT22;5346;48.766;8.674;2022-12-07T12:19:55;1.10;99.90
10597;DHT22;5346;48.766;8.674;2022-12-07T12:22:40;1.10;99.90
10597;DHT22;5346;48.766;8.674;2022-12-07T12:25:27;1.20;99.90
10597;DHT22;5346;48.766;8.674;2022-12-07T12:28:03;1.20;99.90
10597;DHT22;5346;48.766;8.674;2022-12-07T12:33:14;1.30;99.90
10597;DHT22;5346;48.766;8.674;2022-12-07T12:36:28;1.50;99.90
10597;DHT22;5346;48.766;8.674;2022-12-07T12:39:16;1.60;99.90
10597;DHT22;5346;48.766;8.674;2022-12-07T12:41:54;1.40;99.90
10597;DHT22;5346;48.766;8.674;2022-12-07T12:44:40;1.40;99.90
10597;DHT22;5346;48.766;8.674;2022-12-07T12:47:42;1.30;99.90
10597;DHT22;5346;48.766;8.674;2022-12-07T12:50:28;1.50;99.90
10597;DHT22;5346;48.766;8.674;2022-12-07T12:53:25;1.60;99.90
10597;DHT22;5346;48.766;8.674;2022-12-07T12:56:19;2.20;18.40
10597;DHT22;5346;48.766;8.674;2022-12-07T12:59:32;3.20;1.00
10597;DHT22;5346;48.766;8.674;2022-12-07T13:02:30;4.40;99.90
10597;DHT22;5346;48.766;8.674;2022-12-07T13:05:22;5.00;1.00
10597;DHT22;5346;48.766;8.674;2022-12-07T13:08:02;5.40;1.00
10597;DHT22;5346;48.766;8.674;2022-12-07T13:10:47;5.80;1.00
10597;DHT22;5346;48.766;8.674;2022-12-07T13:15:44;5.70;1.00
10597;DHT22;5346;48.766;8.674;2022-12-07T13:20:58;5.30;1.00
10597;DHT22;5346;48.766;8.674;2022-12-07T13:23:52;5.20;1.00
10597;DHT22;5346;48.766;8.674;2022-12-07T13:26:36;5.30;1.00
10597;DHT22;5346;48.766;8.674;2022-12-07T13:31:47;5.00;1.00
10597;DHT22;5346;48.766;8.674;2022-12-07T13:34:41;5.00;1.00
10597;DHT22;5346;48.766;8.674;2022-12-07T13:37:25;5.40;1.00
10597;DHT22;5346;48.766;8.674;2022-12-07T13:40:21;5.70;1.00
10597;DHT22;5346;48.766;8.674;2022-12-07T13:42:58;6.00;99.90
10597;DHT22;5346;48.766;8.674;2022-12-07T13:45:41;6.20;99.90
10597;DHT22;5346;48.766;8.674;2022-12-07T13:48:31;6.30;99.90
10597;DHT22;5346;48.766;8.674;2022-12-07T13:51:24;6.20;99.90
10597;DHT22;5346;48.766;8.674;2022-12-07T13:54:00;5.60;99.90
10597;DHT22;5346;48.766;8.674;2022-12-07T13:56:42;4.50;1.00
10597;DHT22;5346;48.766;8.674;2022-12-07T13:59:23;3.90;1.00
10597;DHT22;5346;48.766;8.674;2022-12-07T14:01:58;3.30;1.00
10597;DHT22;5346;48.766;8.674;2022-12-07T14:04:33;2.90;99.90
10597;DHT22;5346;48.766;8.674;2022-12-07T14:10:00;2.10;1.00
10597;DHT22;5346;48.766;8.674;2022-12-07T14:12:37;1.80;1.00
10597;DHT22;5346;48.766;8.674;2022-12-07T14:15:05;1.70;1.00
10597;DHT22;5346;48.766;8.674;2022-12-07T14:17:33;1.50;43.10
10597;DHT22;5346;48.766;8.674;2022-12-07T14:20:39;1.40;99.90
10597;DHT22;5346;48.766;8.674;2022-12-07T14:23:24;1.30;99.90
10597;DHT22;5346;48.766;8.674;2022-12-07T14:26:25;1.40;99.90
10597;DHT22;5346;48.766;8.674;2022-12-07T14:28:52;1.40;99.90
10597;DHT22;5346;48.766;8.674;2022-12-07T14:31:46;1.40;99.90
10597;DHT22;5346;48.766;8.674;2022-12-07T14:34:13;1.20;1.00
10597;DHT22;5346;48.766;8.674;2022-12-07T14:36:40;1.10;1.00
10597;DHT22;5346;48.766;8.674;2022-12-07T14:39:14;1.10;1.00
10597;DHT22;5346;48.766;8.674;2022-12-07T14:41:41;1.00;1.00
10597;DHT22;5346;48.766;8.674;2022-12-07T14:44:24;0.90;1.00
10597;DHT22;5346;48.766;8.674;2022-12-07T14:47:10;0.80;75.40
10597;DHT22;5346;48.766;8.674;2022-12-07T14:50:04;0.70;99.90
10597;DHT22;5346;48.766;8.674;2022-12-07T14:52:33;0.70;99.90
10597;DHT22;5346;48.766;8.674;2022-12-07T14:55:30;0.60;99.90
10597;DHT22;5346;48.766;8.674;2022-12-07T14:57:58;0.60;99.90
10597;DHT22;5346;48.766;8.674;2022-12-07T15:00:33;0.60;99.90
10597;DHT22;5346;48.766;8.674;2022-12-07T15:03:00;0.60;99.90
10597;DHT22;5346;48.766;8.674;2022-12-07T15:05:28;0.50;99.90
10597;DHT22;5346;48.766;8.674;2022-12-07T15:08:01;0.50;99.90
10597;DHT22;5346;48.766;8.674;2022-12-07T15:10:31;0.50;99.90
10597;DHT22;5346;48.766;8.674;2022-12-07T15:13:01;0.40;99.90
10597;DHT22;5346;48.766;8.674;2022-12-07T15:15:54;0.40;1.00
10597;DHT22;5346;48.766;8.674;2022-12-07T15:18:23;0.40;1.00
10597;DHT22;5346;48.766;8.674;2022-12-07T15:20:51;0.40;99.90
10597;DHT22;5346;48.766;8.674;2022-12-07T15:23:25;0.30;1.00
10597;DHT22;5346;48.766;8.674;2022-12-07T15:25:52;0.20;1.00
10597;DHT22;5346;48.766;8.674;2022-12-07T15:28:19;0.20;1.00
10597;DHT22;5346;48.766;8.674;2022-12-07T15:30:53;0.20;1.00
10597;DHT22;5346;48.766;8.674;2022-12-07T15:33:20;0.20;1.20
10597;DHT22;5346;48.766;8.674;2022-12-07T15:35:48;0.10;26.80
10597;DHT22;5346;48.766;8.674;2022-12-07T15:38:22;0.10;81.40
10597;DHT22;5346;48.766;8.674;2022-12-07T15:41:09;0.10;99.90
10597;DHT22;5346;48.766;8.674;2022-12-07T15:43:43;0.20;99.90
10597;DHT22;5346;48.766;8.674;2022-12-07T15:46:42;0.20;99.90
10597;DHT22;5346;48.766;8.674;2022-12-07T15:49:18;0.10;99.90
10597;DHT22;5346;48.766;8.674;2022-12-07T15:51:46;0.10;99.90
10597;DHT22;5346;48.766;8.674;2022-12-07T15:54:25;0.10;99.90
10597;DHT22;5346;48.766;8.674;2022-12-07T15:57:00;0.10;99.90
10597;DHT22;5346;48.766;8.674;2022-12-07T15:59:32;0.00;1.00
10597;DHT22;5346;48.766;8.674;2022-12-07T16:01:59;0.00;1.00
10597;DHT22;5346;48.766;8.674;2022-12-07T16:04:36;0.10;1.00
10597;DHT22;5346;48.766;8.674;2022-12-07T16:07:03;0.00;1.00
10597;DHT22;5346;48.766;8.674;2022-12-07T16:09:31;0.00;1.00
10597;DHT22;5346;48.766;8.674;2022-12-07T16:12:05;0.00;1.00
10597;DHT22;5346;48.766;8.674;2022-12-07T16:14:33;0.10;1.00
10597;DHT22;5346;48.766;8.674;2022-12-07T16:17:01;0.10;1.00
10597;DHT22;5346;48.766;8.674;2022-12-07T16:19:35;0.10;1.00
10597;DHT22;5346;48.766;8.674;2022-12-07T16:22:04;0.10;1.00
10597;DHT22;5346;48.766;8.674;2022-12-07T16:24:32;0.10;1.00
10597;DHT22;5346;48.766;8.674;2022-12-07T16:27:06;0.10;1.00
10597;DHT22;5346;48.766;8.674;2022-12-07T16:29:33;0.10;1.00
10597;DHT22;5346;48.766;8.674;2022-12-07T16:32:00;0.10;1.00
10597;DHT22;5346;48.766;8.674;2022-12-07T16:34:34;0.10;1.00
10597;DHT22;5346;48.766;8.674;2022-12-07T16:37:01;0.10;1.00
10597;DHT22;5346;48.766;8.674;2022-12-07T16:39:31;0.00;1.00
10597;DHT22;5346;48.766;8.674;2022-12-07T16:42:06;0.00;1.00
10597;DHT22;5346;48.766;8.674;2022-12-07T16:44:33;0.00;1.00
10597;DHT22;5346;48.766;8.674;2022-12-07T16:47:20;0.00;1.00
10597;DHT22;5346;48.766;8.674;2022-12-07T16:49:47;0.00;1.00
10597;DHT22;5346;48.766;8.674;2022-12-07T16:52:21;0.00;1.60
10597;DHT22;5346;48.766;8.674;2022-12-07T16:54:49;0.00;14.60
10597;DHT22;5346;48.766;8.674;2022-12-07T16:57:16;0.00;38.00
10597;DHT22;5346;48.766;8.674;2022-12-07T16:59:52;0.00;47.20
10597;DHT22;5346;48.766;8.674;2022-12-07T17:02:19;0.00;51.60
10597;DHT22;5346;48.766;8.674;2022-12-07T17:04:46;0.00;69.30
10597;DHT22;5346;48.766;8.674;2022-12-07T17:07:20;0.00;48.50
10597;DHT22;5346;48.766;8.674;2022-12-07T17:09:47;0.00;40.10
10597;DHT22;5346;48.766;8.674;2022-12-07T17:12:14;-0.10;23.30
10597;DHT22;5346;48.766;8.674;2022-12-07T17:14:48;-0.10;25.00
10597;DHT22;5346;48.766;8.674;2022-12-07T17:17:35;-0.10;20.20
10597;DHT22;5346;48.766;8.674;2022-12-07T17:20:09;-0.10;14.70
10597;DHT22;5346;48.766;8.674;2022-12-07T17:22:37;-0.10;15.80
10597;DHT22;5346;48.766;8.674;2022-12-07T17:25:05;-0.20;9.00
10597;DHT22;5346;48.766;8.674;2022-12-07T17:27:39;-0.30;18.20
10597;DHT22;5346;48.766;8.674;2022-12-07T17:30:10;-0.30;27.10
10597;DHT22;5346;48.766;8.674;2022-12-07T17:32:38;-0.30;29.90
10597;DHT22;5346;48.766;8.674;2022-12-07T17:35:12;-0.40;59.50
10597;DHT22;5346;48.766;8.674;2022-12-07T17:37:39;-0.30;74.80
10597;DHT22;5346;48.766;8.674;2022-12-07T17:40:08;-0.40;68.60
10597;DHT22;5346;48.766;8.674;2022-12-07T17:42:42;-0.40;72.80
10597;DHT22;5346;48.766;8.674;2022-12-07T17:45:13;-0.40;73.50
10597;DHT22;5346;48.766;8.674;2022-12-07T17:48:00;-0.50;99.90
10597;DHT22;5346;48.766;8.674;2022-12-07T17:50:27;-0.40;99.90
10597;DHT22;5346;48.766;8.674;2022-12-07T17:53:21;-0.50;99.90
10597;DHT22;5346;48.766;8.674;2022-12-07T17:55:52;-0.50;99.90
10597;DHT22;5346;48.766;8.674;2022-12-07T17:58:39;-0.50;99.90
10597;DHT22;5346;48.766;8.674;2022-12-07T18:01:13;-0.50;99.90
10597;DHT22;5346;48.766;8.674;2022-12-07T18:03:40;-0.50;99.90
10597;DHT22;5346;48.766;8.674;2022-12-07T18:06:07;-0.50;99.90
10597;DHT22;5346;48.766;8.674;2022-12-07T18:08:41;-0.50;99.90
10597;DHT22;5346;48.766;8.674;2022-12-07T18:11:08;-0.60;99.90
10597;DHT22;5346;48.766;8.674;2022-12-07T18:13:35;-0.60;99.90
10597;DHT22;5346;48.766;8.674;2022-12-07T18:16:12;-0.70;99.90
10597;DHT22;5346;48.766;8.674;2022-12-07T18:21:29;-0.80;1.00
10597;DHT22;5346;48.766;8.674;2022-12-07T18:24:00;-0.80;1.00
10597;DHT22;5346;48.766;8.674;2022-12-07T18:29:04;-0.80;30.30
10597;DHT22;5346;48.766;8.674;2022-12-07T18:31:34;-0.80;99.90
10597;DHT22;5346;48.766;8.674;2022-12-07T18:34:11;-0.80;99.90
10597;DHT22;5346;48.766;8.674;2022-12-07T18:36:42;-0.80;99.90
10597;DHT22;5346;48.766;8.674;2022-12-07T18:39:20;-0.90;99.90